Time;durP1;ratioP1;P1;durP2;ratioP2;P2;SDS_P1;SDS_P2;PMS_P1;PMS_P2;Temp;Humidity;BMP_temperature;BMP_pressure;BME280_temperature;BME280_humidity;BME280_pressure;Samples;Min_cycle;Max_cycle;Signal;HPM_P1;HPM_P2
2023/11/26 00:01:17;;;;;;;2.40;1.53;;;1.60;99.90;;;;;;5062445;28;20209;-58
2023/11/26 00:03:43;;;;;;;1.40;1.30;;;1.60;99.90;;;;;;5066193;28;20433;-58
2023/11/26 00:06:09;;;;;;;4.20;1.40;;;1.60;99.90;;;;;;5061571;28;20531;-58
2023/11/26 00:08:35;;;;;;;1.43;1.27;;;1.60;99.90;;;;;;5064626;28;20260;-58
2023/11/26 00:11:01;;;;;;;1.40;1.30;;;1.60;99.90;;;;;;5058989;28;20946;-59
2023/11/26 00:13:27;;;;;;;1.20;1.10;;;1.60;99.90;;;;;;5064928;28;20556;-59
2023/11/26 00:15:52;;;;;;;1.53;1.23;;;1.60;99.90;;;;;;5062300;28;20205;-58
2023/11/26 00:18:18;;;;;;;1.97;1.40;;;1.60;99.90;;;;;;5059717;28;20640;-59
2023/11/26 00:20:43;;;;;;;1.43;1.33;;;1.60;99.90;;;;;;5061976;28;20198;-58
2023/11/26 00:23:09;;;;;;;1.90;1.70;;;1.60;99.90;;;;;;5065641;28;20661;-59
2023/11/26 00:25:35;;;;;;;1.63;1.33;;;1.60;99.90;;;;;;5067224;28;20185;-59
2023/11/26 00:28:00;;;;;;;1.67;1.57;;;1.60;99.90;;;;;;5070231;28;20175;-59
2023/11/26 00:30:26;;;;;;;1.47;1.37;;;1.60;99.90;;;;;;5063048;28;20201;-58
2023/11/26 00:32:52;;;;;;;1.37;1.27;;;1.60;99.90;;;;;;5068180;28;20177;-58
2023/11/26 00:35:17;;;;;;;1.57;1.43;;;1.60;99.90;;;;;;5067507;28;20211;-58
2023/11/26 00:37:43;;;;;;;1.90;1.40;;;1.60;99.90;;;;;;5069495;28;20173;-59
2023/11/26 00:40:12;;;;;;;1.57;1.40;;;1.60;99.90;;;;;;5069961;28;20695;-59
2023/11/26 00:42:37;;;;;;;1.33;1.23;;;1.60;99.90;;;;;;5063210;28;20191;-59
2023/11/26 00:45:04;;;;;;;1.00;1.00;;;1.70;99.90;;;;;;5061821;28;20819;-58
2023/11/26 00:47:30;;;;;;;1.23;1.13;;;1.70;99.90;;;;;;5063388;28;20189;-59
2023/11/26 00:50:00;;;;;;;1.47;1.40;;;1.70;99.90;;;;;;5064469;28;20443;-58
2023/11/26 00:52:26;;;;;;;1.10;1.10;;;1.70;99.90;;;;;;5062370;28;20188;-58
2023/11/26 00:54:52;;;;;;;1.13;1.13;;;1.70;99.90;;;;;;5067195;28;20955;-58
2023/11/26 00:57:17;;;;;;;2.43;1.30;;;1.70;99.90;;;;;;5069877;28;20177;-58
2023/11/26 00:59:43;;;;;;;1.30;1.23;;;1.70;99.90;;;;;;5068171;28;20186;-59
2023/11/26 01:02:09;;;;;;;1.47;1.37;;;1.70;99.90;;;;;;5067000;28;20201;-58
2023/11/26 01:04:35;;;;;;;2.23;1.10;;;1.70;99.90;;;;;;5066497;28;20649;-58
2023/11/26 01:07:00;;;;;;;1.20;1.20;;;1.70;99.90;;;;;;5069140;28;20498;-58
2023/11/26 01:09:26;;;;;;;1.33;1.23;;;1.60;99.90;;;;;;5069309;28;20194;-58
2023/11/26 01:11:52;;;;;;;1.27;1.17;;;1.60;99.90;;;;;;5065962;28;20609;-59
2023/11/26 01:14:17;;;;;;;1.47;1.30;;;1.70;99.90;;;;;;5064065;28;20264;-60
2023/11/26 01:16:43;;;;;;;1.83;1.17;;;1.70;99.90;;;;;;5067563;28;20203;-59
2023/11/26 01:19:09;;;;;;;1.53;1.43;;;1.70;99.90;;;;;;5067339;28;20274;-59
2023/11/26 01:21:34;;;;;;;1.10;1.10;;;1.70;99.90;;;;;;5064939;28;21102;-58
2023/11/26 01:24:02;;;;;;;1.80;1.10;;;1.60;99.90;;;;;;5068070;28;20170;-60
2023/11/26 01:26:27;;;;;;;1.07;1.07;;;1.60;99.90;;;;;;5068209;28;20204;-58
2023/11/26 01:28:53;;;;;;;2.23;1.17;;;1.60;99.90;;;;;;5067209;28;21101;-59
2023/11/26 01:31:19;;;;;;;1.53;1.43;;;1.60;99.90;;;;;;5065502;28;20329;-58
2023/11/26 01:33:44;;;;;;;2.00;1.10;;;1.70;99.90;;;;;;5067450;28;20189;-60
2023/11/26 01:36:10;;;;;;;1.07;1.00;;;1.70;99.90;;;;;;5064860;28;20209;-59
2023/11/26 01:38:36;;;;;;;1.40;1.30;;;1.70;99.90;;;;;;5069296;28;20185;-59
2023/11/26 01:41:01;;;;;;;2.70;1.40;;;1.70;99.90;;;;;;5068467;28;20208;-59
2023/11/26 01:43:27;;;;;;;1.57;1.47;;;1.70;99.90;;;;;;5066755;28;20177;-59
2023/11/26 01:46:04;;;;;;;1.27;1.17;;;1.70;99.90;;;;;;5056508;28;20339;-59
2023/11/26 01:48:31;;;;;;;2.20;1.30;;;1.70;99.90;;;;;;5065464;28;20183;-59
2023/11/26 01:50:57;;;;;;;1.20;1.20;;;1.70;99.90;;;;;;5064508;28;20448;-60
2023/11/26 01:53:23;;;;;;;1.23;1.13;;;1.70;99.90;;;;;;5065815;28;20447;-59
2023/11/26 01:55:49;;;;;;;3.13;1.20;;;1.70;99.90;;;;;;5064631;28;20205;-60
2023/11/26 01:58:15;;;;;;;1.30;1.23;;;1.70;99.90;;;;;;5066474;28;20483;-59
2023/11/26 02:00:41;;;;;;;1.47;1.37;;;1.70;99.90;;;;;;5066040;28;20448;-59
2023/11/26 02:03:06;;;;;;;1.30;1.30;;;1.70;99.90;;;;;;5063286;28;20420;-59
2023/11/26 02:05:32;;;;;;;1.40;1.30;;;1.70;99.90;;;;;;5063838;28;20425;-59
2023/11/26 02:07:58;;;;;;;1.43;1.33;;;1.70;99.90;;;;;;5068299;28;20186;-59
2023/11/26 02:10:24;;;;;;;1.60;1.50;;;1.70;99.90;;;;;;5063314;28;20207;-59
2023/11/26 02:13:03;;;;;;;1.90;1.80;;;1.70;99.90;;;;;;5065576;28;20181;-59
2023/11/26 02:15:29;;;;;;;1.50;1.40;;;1.70;99.90;;;;;;5062422;28;20202;-59
2023/11/26 02:17:55;;;;;;;1.40;1.30;;;1.70;99.90;;;;;;5066926;28;20531;-59
2023/11/26 02:20:22;;;;;;;3.93;2.00;;;1.70;99.90;;;;;;5064895;28;20542;-59
2023/11/26 02:22:48;;;;;;;1.60;1.50;;;1.70;99.90;;;;;;5065103;28;20177;-58
2023/11/26 02:25:14;;;;;;;2.30;1.40;;;1.80;99.90;;;;;;5066050;28;20787;-58
2023/11/26 02:27:39;;;;;;;2.53;1.60;;;1.70;99.90;;;;;;5068714;28;20435;-59
2023/11/26 02:30:06;;;;;;;3.10;2.13;;;1.70;99.90;;;;;;5063998;28;20174;-58
2023/11/26 02:32:32;;;;;;;3.70;1.20;;;1.80;99.90;;;;;;5065509;28;20206;-58
2023/11/26 02:34:58;;;;;;;1.63;1.30;;;1.80;99.90;;;;;;5064985;28;20883;-58
2023/11/26 02:37:23;;;;;;;2.10;1.70;;;1.80;99.90;;;;;;5066849;28;20419;-59
2023/11/26 02:39:49;;;;;;;1.30;1.30;;;1.80;99.90;;;;;;5059553;28;20439;-58
2023/11/26 02:42:14;;;;;;;3.07;1.70;;;1.80;99.90;;;;;;5065671;28;20204;-58
2023/11/26 02:44:40;;;;;;;1.77;1.67;;;1.80;99.90;;;;;;5063707;28;20550;-59
2023/11/26 02:47:07;;;;;;;1.70;1.60;;;1.80;99.90;;;;;;5066661;28;20212;-58
2023/11/26 02:49:33;;;;;;;1.13;1.10;;;1.80;99.90;;;;;;5059028;28;20265;-59
2023/11/26 02:51:59;;;;;;;1.40;1.30;;;1.80;99.90;;;;;;5064071;28;20473;-59
2023/11/26 02:54:25;;;;;;;2.10;1.20;;;1.80;99.90;;;;;;5067156;28;20455;-59
2023/11/26 02:56:50;;;;;;;3.00;1.20;;;1.70;99.90;;;;;;5065320;28;20229;-59
2023/11/26 02:59:16;;;;;;;1.10;1.10;;;1.70;99.90;;;;;;5062430;28;20174;-58
2023/11/26 03:01:42;;;;;;;1.10;1.10;;;1.70;99.90;;;;;;5064476;28;20210;-59
2023/11/26 03:04:08;;;;;;;2.10;1.47;;;1.70;99.90;;;;;;5068281;28;20179;-59
2023/11/26 03:06:35;;;;;;;1.90;1.70;;;1.70;99.90;;;;;;5063500;28;20214;-59
2023/11/26 03:09:09;;;;;;;1.30;1.30;;;1.70;99.90;;;;;;5066634;28;20427;-59
2023/11/26 03:14:19;;;;;;;1.77;1.50;;;1.80;99.90;;;;;;5060484;28;20971;-58
2023/11/26 03:16:46;;;;;;;1.53;1.43;;;1.70;99.90;;;;;;5067075;28;20463;-59
2023/11/26 03:19:15;;;;;;;1.53;1.43;;;1.70;99.90;;;;;;5061895;28;20231;-59
2023/11/26 03:21:44;;;;;;;1.70;1.60;;;1.80;99.90;;;;;;5065523;28;20525;-59
2023/11/26 03:24:13;;;;;;;2.17;1.63;;;1.80;99.90;;;;;;5060933;28;20966;-59
2023/11/26 03:26:39;;;;;;;2.93;1.40;;;1.70;99.90;;;;;;5061952;28;20439;-59
2023/11/26 03:29:05;;;;;;;1.50;1.40;;;1.80;99.90;;;;;;5061144;28;20440;-58
2023/11/26 03:31:31;;;;;;;1.43;1.33;;;1.70;99.90;;;;;;5064259;28;20545;-59
2023/11/26 03:33:57;;;;;;;1.50;1.40;;;1.70;99.90;;;;;;5063048;28;20524;-58
2023/11/26 03:36:23;;;;;;;2.03;1.50;;;1.80;99.90;;;;;;5064840;28;20296;-58
2023/11/26 03:38:49;;;;;;;2.20;1.70;;;1.80;99.90;;;;;;5066440;28;20411;-59
2023/11/26 03:41:14;;;;;;;1.40;1.30;;;1.80;99.90;;;;;;5066125;28;20216;-58
2023/11/26 03:43:40;;;;;;;1.30;1.27;;;1.80;99.90;;;;;;5057781;28;20204;-60
2023/11/26 03:46:06;;;;;;;2.33;1.47;;;1.80;99.90;;;;;;5062874;28;20177;-58
2023/11/26 03:48:32;;;;;;;1.40;1.30;;;1.80;99.90;;;;;;5065255;28;20652;-58
2023/11/26 03:50:58;;;;;;;1.63;1.50;;;1.80;99.90;;;;;;5064909;28;20569;-59
2023/11/26 03:53:24;;;;;;;1.23;1.20;;;1.80;99.90;;;;;;5065954;28;20182;-59
2023/11/26 03:55:49;;;;;;;3.23;1.50;;;1.80;99.90;;;;;;5064078;28;20455;-58
2023/11/26 03:58:16;;;;;;;2.60;1.60;;;1.80;99.90;;;;;;5064513;28;20801;-58
2023/11/26 04:00:42;;;;;;;1.57;1.47;;;1.70;99.90;;;;;;5062990;28;20197;-59
2023/11/26 04:03:07;;;;;;;1.83;1.70;;;1.80;99.90;;;;;;5070905;28;20407;-59
2023/11/26 04:05:33;;;;;;;5.37;1.87;;;1.80;99.90;;;;;;5063501;28;22877;-59
2023/11/26 04:07:59;;;;;;;1.87;1.77;;;1.80;99.90;;;;;;5067484;28;20186;-60
2023/11/26 04:10:24;;;;;;;2.83;1.67;;;1.70;99.90;;;;;;5068247;28;20201;-58
2023/11/26 04:12:50;;;;;;;1.83;1.40;;;1.70;99.90;;;;;;5066592;28;20237;-58
2023/11/26 04:15:22;;;;;;;2.20;1.93;;;1.70;99.90;;;;;;5068648;28;20791;-58
2023/11/26 04:17:48;;;;;;;1.97;1.60;;;1.70;99.90;;;;;;5068123;28;20182;-58
2023/11/26 04:20:14;;;;;;;2.40;1.97;;;1.80;99.90;;;;;;5065130;28;20421;-59
2023/11/26 04:22:39;;;;;;;3.13;1.73;;;1.70;99.90;;;;;;5067137;28;20427;-59
2023/11/26 04:25:05;;;;;;;2.67;1.57;;;1.70;99.90;;;;;;5071220;28;20181;-59
2023/11/26 04:27:31;;;;;;;1.50;1.40;;;1.80;99.90;;;;;;5067639;28;20170;-59
2023/11/26 04:29:58;;;;;;;3.80;1.40;;;1.70;99.90;;;;;;5064797;28;20233;-59
2023/11/26 04:32:24;;;;;;;2.33;1.83;;;1.70;99.90;;;;;;5069704;28;20421;-59
2023/11/26 04:34:49;;;;;;;1.57;1.47;;;1.80;99.90;;;;;;5065235;28;20489;-58
2023/11/26 04:37:15;;;;;;;6.10;1.77;;;1.70;99.90;;;;;;5067836;28;20957;-58
2023/11/26 04:39:41;;;;;;;2.47;1.80;;;1.70;99.90;;;;;;5070568;28;20649;-58
2023/11/26 04:42:07;;;;;;;6.30;2.03;;;1.70;99.90;;;;;;5068876;28;20198;-58
2023/11/26 04:44:33;;;;;;;2.13;1.70;;;1.70;99.90;;;;;;5064839;28;20193;-58
2023/11/26 04:46:59;;;;;;;1.70;1.60;;;1.70;99.90;;;;;;5064885;28;20416;-59
2023/11/26 04:49:25;;;;;;;1.73;1.50;;;1.70;99.90;;;;;;5066134;28;20177;-59
2023/11/26 04:51:51;;;;;;;1.97;1.87;;;1.70;99.90;;;;;;5067946;28;20543;-59
2023/11/26 04:54:17;;;;;;;2.00;1.90;;;1.70;99.90;;;;;;5069820;28;20732;-58
2023/11/26 04:56:43;;;;;;;2.43;1.80;;;1.70;99.90;;;;;;5067038;28;20505;-59
2023/11/26 04:59:09;;;;;;;2.10;1.50;;;1.70;99.90;;;;;;5067255;28;20937;-57
2023/11/26 05:01:38;;;;;;;3.63;1.60;;;1.70;99.90;;;;;;5062931;28;20203;-58
2023/11/26 05:04:06;;;;;;;2.23;1.50;;;1.70;99.90;;;;;;5068348;28;20427;-58
2023/11/26 05:06:31;;;;;;;2.20;2.00;;;1.60;99.90;;;;;;5065653;28;20478;-58
2023/11/26 05:08:57;;;;;;;3.27;1.73;;;1.60;99.90;;;;;;5066503;28;20432;-57
2023/11/26 05:11:23;;;;;;;2.80;1.73;;;1.60;99.90;;;;;;5057686;28;20542;-58
2023/11/26 05:13:48;;;;;;;5.50;1.80;;;1.70;99.90;;;;;;5067381;28;20171;-58
2023/11/26 05:16:15;;;;;;;3.20;2.40;;;1.60;99.90;;;;;;5065284;28;20206;-58
2023/11/26 05:18:41;;;;;;;5.93;2.03;;;1.60;99.90;;;;;;5066292;28;20641;-58
2023/11/26 05:21:06;;;;;;;4.00;1.97;;;1.60;99.90;;;;;;5067811;28;21023;-59
2023/11/26 05:23:33;;;;;;;2.50;1.80;;;1.60;99.90;;;;;;5066179;28;20181;-59
2023/11/26 05:25:59;;;;;;;5.40;2.80;;;1.60;99.90;;;;;;5068808;28;20265;-58
2023/11/26 05:28:25;;;;;;;3.57;2.23;;;1.70;99.90;;;;;;5067098;28;20507;-59
2023/11/26 05:30:50;;;;;;;2.07;1.87;;;1.60;99.90;;;;;;5063206;28;21413;-58
2023/11/26 05:33:16;;;;;;;3.83;2.03;;;1.60;99.90;;;;;;5062221;28;20420;-58
2023/11/26 05:35:42;;;;;;;3.23;1.93;;;1.60;99.90;;;;;;5068408;28;20202;-60
2023/11/26 05:38:07;;;;;;;3.20;2.20;;;1.60;99.90;;;;;;5069122;28;20576;-59
2023/11/26 05:40:33;;;;;;;3.20;1.80;;;1.60;99.90;;;;;;5065033;28;20592;-58
2023/11/26 05:42:58;;;;;;;2.00;1.90;;;1.60;99.90;;;;;;5068621;28;20199;-59
2023/11/26 05:45:24;;;;;;;3.10;2.13;;;1.60;99.90;;;;;;5066691;28;20264;-59
2023/11/26 05:47:50;;;;;;;5.30;2.13;;;1.60;99.90;;;;;;5065347;28;20182;-59
2023/11/26 05:50:15;;;;;;;2.60;2.10;;;1.70;99.90;;;;;;5065082;28;20176;-57
2023/11/26 05:52:41;;;;;;;4.07;2.13;;;1.70;99.90;;;;;;5068005;28;20171;-59
2023/11/26 05:55:08;;;;;;;5.33;2.63;;;1.60;99.90;;;;;;5066855;28;20177;-59
2023/11/26 05:57:33;;;;;;;3.53;2.20;;;1.60;99.90;;;;;;5062063;28;20433;-59
2023/11/26 05:59:59;;;;;;;7.30;5.50;;;1.60;99.90;;;;;;5067544;28;20408;-58
2023/11/26 06:02:25;;;;;;;8.03;5.80;;;1.70;99.90;;;;;;5063333;28;20787;-59
2023/11/26 06:04:51;;;;;;;3.83;2.90;;;1.70;99.90;;;;;;5064594;28;20805;-59
2023/11/26 06:07:17;;;;;;;3.13;2.83;;;1.60;99.90;;;;;;5065024;28;20458;-59
2023/11/26 06:09:43;;;;;;;4.03;2.10;;;1.70;99.90;;;;;;5068348;28;20167;-60
2023/11/26 06:12:08;;;;;;;3.70;2.10;;;1.70;99.90;;;;;;5067722;28;20343;-58
2023/11/26 06:14:34;;;;;;;3.00;2.20;;;1.70;99.90;;;;;;5066522;28;20345;-58
2023/11/26 06:17:00;;;;;;;2.97;2.23;;;1.60;99.90;;;;;;5067963;28;20207;-59
2023/11/26 06:19:25;;;;;;;4.50;2.47;;;1.60;99.90;;;;;;5066173;28;20203;-58
2023/11/26 06:21:51;;;;;;;3.53;2.23;;;1.60;99.90;;;;;;5065075;28;20210;-58
2023/11/26 06:24:17;;;;;;;2.70;2.17;;;1.60;99.90;;;;;;5062505;28;20171;-59
2023/11/26 06:26:42;;;;;;;3.80;2.27;;;1.60;99.90;;;;;;5066247;28;20186;-58
2023/11/26 06:29:08;;;;;;;3.70;2.60;;;1.60;99.90;;;;;;5065703;28;20196;-59
2023/11/26 06:31:34;;;;;;;4.90;2.60;;;1.60;99.90;;;;;;5063327;28;20201;-58
2023/11/26 06:34:00;;;;;;;7.03;2.50;;;1.60;99.90;;;;;;5066937;28;20712;-59
2023/11/26 06:36:26;;;;;;;3.90;2.83;;;1.60;99.90;;;;;;5064088;28;20608;-59
2023/11/26 06:38:52;;;;;;;4.63;2.83;;;1.60;99.90;;;;;;5068151;28;20253;-59
2023/11/26 06:41:21;;;;;;;4.93;2.97;;;1.60;99.90;;;;;;5063084;28;20439;-61
2023/11/26 06:43:47;;;;;;;15.03;2.80;;;1.60;99.90;;;;;;5065835;28;20413;-58
2023/11/26 06:46:18;;;;;;;6.70;3.00;;;1.60;99.90;;;;;;5065791;28;20417;-59
2023/11/26 06:48:44;;;;;;;5.63;2.97;;;1.60;99.90;;;;;;5063545;28;20185;-58
2023/11/26 06:51:11;;;;;;;4.57;2.53;;;1.60;99.90;;;;;;5055288;28;20440;-57
2023/11/26 06:53:36;;;;;;;4.00;2.70;;;1.60;99.90;;;;;;5056062;28;20439;-59
2023/11/26 06:56:02;;;;;;;5.10;3.47;;;1.60;99.90;;;;;;5061958;28;20449;-57
2023/11/26 06:58:27;;;;;;;5.60;3.03;;;1.60;99.90;;;;;;5063917;28;20519;-57
2023/11/26 07:00:53;;;;;;;8.33;3.17;;;1.50;99.90;;;;;;5064065;28;20742;-58
2023/11/26 07:03:18;;;;;;;3.87;3.03;;;1.60;99.90;;;;;;5058727;28;20171;-58
2023/11/26 07:05:44;;;;;;;5.20;2.97;;;1.60;99.90;;;;;;5066138;28;20173;-58
2023/11/26 07:08:10;;;;;;;7.43;3.30;;;1.60;99.90;;;;;;5066991;28;20214;-59
2023/11/26 07:10:36;;;;;;;6.40;3.57;;;1.50;99.90;;;;;;5059092;28;20251;-58
2023/11/26 07:13:05;;;;;;;5.80;3.00;;;1.50;99.90;;;;;;5062892;28;20431;-58
2023/11/26 07:15:31;;;;;;;3.57;2.90;;;1.50;99.90;;;;;;5065602;28;20239;-58
2023/11/26 07:17:58;;;;;;;5.83;2.93;;;1.50;99.90;;;;;;5066125;28;20440;-58
2023/11/26 07:20:24;;;;;;;5.50;3.30;;;1.50;99.90;;;;;;5061665;28;20458;-58
2023/11/26 07:22:51;;;;;;;5.70;3.23;;;1.50;99.90;;;;;;5062431;28;20413;-59
2023/11/26 07:25:17;;;;;;;11.17;3.87;;;1.50;99.90;;;;;;5064235;28;20184;-58
2023/11/26 07:27:42;;;;;;;4.07;2.70;;;1.50;99.90;;;;;;5062449;28;20413;-58
2023/11/26 07:30:09;;;;;;;4.53;2.87;;;1.50;99.90;;;;;;5061058;28;20174;-58
2023/11/26 07:32:35;;;;;;;6.00;3.20;;;1.40;99.90;;;;;;5064699;28;20684;-59
2023/11/26 07:35:00;;;;;;;5.53;3.07;;;1.40;99.90;;;;;;5060318;28;20432;-58
2023/11/26 07:37:27;;;;;;;4.60;2.93;;;1.40;99.90;;;;;;5064894;28;20185;-58
2023/11/26 07:39:53;;;;;;;6.93;2.90;;;1.40;99.90;;;;;;5065650;28;20315;-58
2023/11/26 07:42:19;;;;;;;4.03;2.97;;;1.40;99.90;;;;;;5062978;28;20447;-57
2023/11/26 07:44:46;;;;;;;4.73;2.73;;;1.40;99.90;;;;;;5065266;28;20410;-58
2023/11/26 07:47:11;;;;;;;12.37;2.70;;;1.50;99.90;;;;;;5066033;28;20762;-58
2023/11/26 07:49:37;;;;;;;4.00;3.03;;;1.40;99.90;;;;;;5060966;28;20450;-58
2023/11/26 07:52:03;;;;;;;6.93;3.30;;;1.50;99.90;;;;;;5063883;28;20198;-58
2023/11/26 07:54:29;;;;;;;8.73;3.80;;;1.50;99.90;;;;;;5061572;28;20169;-59
2023/11/26 07:56:55;;;;;;;4.57;3.67;;;1.50;99.90;;;;;;5061400;28;20458;-58
2023/11/26 07:59:21;;;;;;;6.20;4.00;;;1.50;99.90;;;;;;5067061;28;20180;-58
2023/11/26 08:01:52;;;;;;;5.60;3.67;;;1.50;99.90;;;;;;5062656;28;20243;-58
2023/11/26 08:04:18;;;;;;;7.27;4.37;;;1.60;99.90;;;;;;5065180;28;20177;-58
2023/11/26 08:06:50;;;;;;;8.23;3.90;;;1.60;99.90;;;;;;5064108;28;20950;-59
2023/11/26 08:09:15;;;;;;;6.87;3.73;;;1.50;99.90;;;;;;5063036;28;20505;-58
2023/11/26 08:11:46;;;;;;;5.77;3.40;;;1.60;99.90;;;;;;5065114;28;20572;-59
2023/11/26 08:14:12;;;;;;;9.27;4.97;;;1.60;99.90;;;;;;5063187;28;20184;-58
2023/11/26 08:16:42;;;;;;;7.10;3.63;;;1.60;99.90;;;;;;5063417;28;20458;-58
2023/11/26 08:19:13;;;;;;;10.33;4.10;;;1.60;99.90;;;;;;5065410;28;20498;-59
2023/11/26 08:21:40;;;;;;;10.57;5.40;;;1.70;99.90;;;;;;5061193;28;20438;-58
2023/11/26 08:24:13;;;;;;;14.87;6.30;;;1.70;99.90;;;;;;5050637;28;21228;-59
2023/11/26 08:26:45;;;;;;;14.63;7.90;;;1.70;99.90;;;;;;5056471;28;20973;-60
2023/11/26 08:29:11;;;;;;;7.50;4.60;;;1.80;99.90;;;;;;5060071;28;20424;-60
2023/11/26 08:31:37;;;;;;;4.87;3.70;;;1.80;99.90;;;;;;5055175;28;20513;-60
2023/11/26 08:34:05;;;;;;;8.10;3.67;;;1.80;99.90;;;;;;5060099;28;20432;-60
2023/11/26 08:36:33;;;;;;;9.83;4.60;;;1.70;99.90;;;;;;5060886;28;20464;-61
2023/11/26 08:39:00;;;;;;;5.97;3.57;;;1.80;99.90;;;;;;5057357;28;20423;-61
2023/11/26 08:41:26;;;;;;;6.80;4.00;;;1.80;99.90;;;;;;5065359;28;20862;-61
2023/11/26 08:43:52;;;;;;;8.07;3.40;;;1.80;99.90;;;;;;5065080;28;20410;-61
2023/11/26 08:46:19;;;;;;;8.67;3.50;;;1.80;99.90;;;;;;5062944;28;20401;-59
2023/11/26 08:48:45;;;;;;;4.57;3.77;;;1.90;99.90;;;;;;5068053;28;20323;-59
2023/11/26 08:51:11;;;;;;;4.60;2.80;;;1.90;99.90;;;;;;5068080;28;20531;-60
2023/11/26 08:53:37;;;;;;;7.00;4.67;;;2.00;99.90;;;;;;5067217;28;20273;-60
2023/11/26 08:56:03;;;;;;;18.70;7.50;;;2.00;99.90;;;;;;5067464;28;20945;-60
2023/11/26 08:58:29;;;;;;;14.20;7.27;;;2.10;99.90;;;;;;5064486;28;20525;-60
2023/11/26 09:00:57;;;;;;;9.87;5.37;;;2.20;99.90;;;;;;5066203;28;20451;-61
2023/11/26 09:03:23;;;;;;;9.53;4.80;;;2.20;99.90;;;;;;5067914;28;20187;-60
2023/11/26 09:05:49;;;;;;;7.20;4.87;;;2.30;99.90;;;;;;5068146;28;20517;-60
2023/11/26 09:08:16;;;;;;;7.57;3.77;;;2.40;99.90;;;;;;5070342;28;20182;-60
2023/11/26 09:10:42;;;;;;;13.20;4.57;;;2.50;99.90;;;;;;5064370;28;20446;-59
2023/11/26 09:13:08;;;;;;;8.67;3.80;;;2.60;99.90;;;;;;5066285;28;20432;-60
2023/11/26 09:15:36;;;;;;;8.73;5.20;;;2.80;99.90;;;;;;5062811;28;20197;-60
2023/11/26 09:18:04;;;;;;;9.03;3.97;;;3.10;99.90;;;;;;5061293;28;20193;-58
2023/11/26 09:20:30;;;;;;;12.67;6.80;;;3.30;99.90;;;;;;5064826;28;20986;-58
2023/11/26 09:22:55;;;;;;;12.17;8.50;;;3.50;99.90;;;;;;5061561;28;20448;-57
2023/11/26 09:25:21;;;;;;;11.23;6.50;;;3.50;99.90;;;;;;5059977;28;20428;-57
2023/11/26 09:27:47;;;;;;;5.03;4.07;;;3.50;99.90;;;;;;5061782;28;20254;-59
2023/11/26 09:30:13;;;;;;;2.80;2.60;;;3.50;99.90;;;;;;5063408;28;20553;-58
2023/11/26 09:32:38;;;;;;;3.53;2.43;;;3.50;99.90;;;;;;5062406;28;20583;-59
2023/11/26 09:35:05;;;;;;;2.27;2.07;;;3.50;99.90;;;;;;5060853;28;20178;-59
2023/11/26 09:37:31;;;;;;;3.60;2.10;;;3.60;99.90;;;;;;5065139;28;20592;-60
2023/11/26 09:39:56;;;;;;;1.80;1.60;;;3.70;99.90;;;;;;5063316;28;20996;-59
2023/11/26 09:42:23;;;;;;;7.03;2.80;;;3.80;99.90;;;;;;5065709;28;20208;-60
2023/11/26 09:44:49;;;;;;;4.17;2.50;;;3.80;99.90;;;;;;5061426;28;20185;-59
2023/11/26 09:47:15;;;;;;;4.13;2.10;;;3.80;99.90;;;;;;5062617;28;20433;-60
2023/11/26 09:49:41;;;;;;;5.67;2.87;;;3.70;99.90;;;;;;5065025;28;20185;-59
2023/11/26 09:52:07;;;;;;;2.93;2.30;;;3.70;99.90;;;;;;5064862;28;20475;-58
2023/11/26 09:54:33;;;;;;;2.90;2.50;;;3.60;99.90;;;;;;5063064;28;20432;-59
2023/11/26 09:56:59;;;;;;;2.80;2.27;;;3.60;99.90;;;;;;5062471;28;20989;-59
2023/11/26 09:59:30;;;;;;;5.33;3.30;;;3.70;99.90;;;;;;5055787;28;20188;-59
2023/11/26 10:01:58;;;;;;;4.77;2.40;;;3.70;99.90;;;;;;5059109;28;20959;-59
2023/11/26 10:04:24;;;;;;;5.23;2.80;;;3.60;99.90;;;;;;5063917;28;20432;-59
2023/11/26 10:06:54;;;;;;;2.93;2.40;;;3.60;99.90;;;;;;5066015;28;20447;-59
2023/11/26 10:09:20;;;;;;;4.73;2.50;;;3.40;99.90;;;;;;5061767;28;20827;-59
2023/11/26 10:11:47;;;;;;;4.07;2.53;;;3.30;99.90;;;;;;5066994;28;20456;-60
2023/11/26 10:14:18;;;;;;;5.50;2.73;;;3.30;99.90;;;;;;5059025;28;20428;-59
2023/11/26 10:16:44;;;;;;;4.93;2.70;;;3.20;99.90;;;;;;5061661;28;21129;-59
2023/11/26 10:19:27;;;;;;;3.17;2.50;;;3.20;99.90;;;;;;5058967;28;20520;-60
2023/11/26 10:21:57;;;;;;;5.30;3.00;;;3.10;99.90;;;;;;5056711;28;20546;-58
2023/11/26 10:24:27;;;;;;;5.10;2.90;;;3.20;99.90;;;;;;5061338;28;20432;-59
2023/11/26 10:26:54;;;;;;;3.60;2.70;;;3.10;99.90;;;;;;5062470;28;20435;-59
2023/11/26 10:29:28;;;;;;;3.37;2.73;;;3.10;99.90;;;;;;5061051;28;20437;-59
2023/11/26 10:32:00;;;;;;;5.77;3.50;;;3.20;99.90;;;;;;5056520;28;20593;-59
2023/11/26 10:34:26;;;;;;;3.60;2.57;;;3.30;99.90;;;;;;5060197;28;20445;-53
2023/11/26 10:36:52;;;;;;;20.17;5.00;;;3.30;99.90;;;;;;5061341;28;20559;-55
2023/11/26 10:39:18;;;;;;;10.97;4.30;;;3.30;99.90;;;;;;5064757;28;20512;-60
2023/11/26 10:41:47;;;;;;;3.67;2.50;;;3.30;99.90;;;;;;5054003;28;20199;-55
2023/11/26 10:44:14;;;;;;;5.93;3.23;;;3.30;99.90;;;;;;5058226;28;20684;-59
2023/11/26 10:46:49;;;;;;;9.17;3.90;;;3.20;99.90;;;;;;5062047;28;20434;-60
2023/11/26 10:49:25;;;;;;;5.67;3.90;;;3.20;99.90;;;;;;5062753;28;20440;-60
2023/11/26 10:52:16;;;;;;;6.10;5.00;;;3.10;99.90;;;;;;5061562;28;20505;-60
2023/11/26 10:54:54;;;;;;;5.27;3.33;;;3.10;99.90;;;;;;5061259;28;20536;-60
2023/11/26 10:57:37;;;;;;;7.37;3.70;;;3.10;99.90;;;;;;5060323;28;20468;-60
2023/11/26 11:00:06;;;;;;;6.10;2.60;;;3.10;99.90;;;;;;5061976;28;20428;-59
2023/11/26 11:02:36;;;;;;;3.90;2.00;;;3.10;99.90;;;;;;5059992;28;20847;-60
2023/11/26 11:05:04;;;;;;;7.50;4.10;;;3.10;99.90;;;;;;5066381;28;20417;-59
2023/11/26 11:07:32;;;;;;;6.90;3.40;;;3.10;99.90;;;;;;5066058;28;20422;-60
2023/11/26 11:10:24;;;;;;;6.27;2.63;;;3.10;99.90;;;;;;5062843;28;20422;-59
2023/11/26 11:12:57;;;;;;;3.37;2.30;;;3.10;99.90;;;;;;5064831;28;20436;-60
2023/11/26 11:15:24;;;;;;;4.20;2.23;;;3.10;99.90;;;;;;5066218;28;21004;-60
2023/11/26 11:17:50;;;;;;;3.83;2.50;;;3.20;99.90;;;;;;5063826;28;20448;-56
2023/11/26 11:20:15;;;;;;;11.40;2.40;;;3.30;99.90;;;;;;5063672;28;20957;-59
2023/11/26 11:22:42;;;;;;;9.60;2.77;;;3.60;99.90;;;;;;5063393;28;20178;-58
2023/11/26 11:25:12;;;;;;;3.47;2.27;;;3.80;99.90;;;;;;5064576;28;20174;-60
2023/11/26 11:27:48;;;;;;;5.57;2.80;;;4.00;99.90;;;;;;5065910;28;20432;-60
2023/11/26 11:30:32;;;;;;;4.50;2.87;;;4.20;99.90;;;;;;5064735;28;20545;-61
2023/11/26 11:33:04;;;;;;;4.33;2.10;;;4.20;99.90;;;;;;5064191;28;20424;-60
2023/11/26 11:35:41;;;;;;;5.30;2.17;;;4.10;99.90;;;;;;5064791;28;20475;-61
2023/11/26 11:38:12;;;;;;;2.13;1.80;;;4.00;99.90;;;;;;5063051;28;20420;-59
2023/11/26 11:41:08;;;;;;;2.40;2.10;;;3.90;99.90;;;;;;5063137;28;20437;-57
2023/11/26 11:43:38;;;;;;;3.87;2.00;;;3.80;99.90;;;;;;5064027;28;20488;-58
2023/11/26 11:46:36;;;;;;;4.70;2.30;;;3.80;99.90;;;;;;5061049;28;20421;-59
2023/11/26 11:49:02;;;;;;;11.03;3.90;;;4.00;99.90;;;;;;5038457;28;20830;-60
2023/11/26 11:51:31;;;;;;;5.23;1.40;;;4.10;99.90;;;;;;5065075;28;20991;-59
2023/11/26 11:54:09;;;;;;;1.67;1.50;;;4.20;99.90;;;;;;5059199;28;20182;-63
2023/11/26 11:56:42;;;;;;;4.80;1.80;;;4.20;99.90;;;;;;5064351;28;20468;-60
2023/11/26 11:59:09;;;;;;;2.40;1.80;;;4.20;99.90;;;;;;5062521;28;20500;-61
2023/11/26 12:01:35;;;;;;;3.97;2.43;;;4.20;99.90;;;;;;5060489;28;20429;-64
2023/11/26 12:04:01;;;;;;;2.00;1.80;;;4.20;99.90;;;;;;5059117;28;20536;-59
2023/11/26 12:06:28;;;;;;;2.00;1.90;;;4.20;99.90;;;;;;5058611;28;20461;-59
2023/11/26 12:08:58;;;;;;;2.40;1.73;;;4.20;99.90;;;;;;5046056;28;20519;-61
2023/11/26 12:11:24;;;;;;;2.43;1.90;;;4.20;99.90;;;;;;5054769;28;20967;-61
2023/11/26 12:13:50;;;;;;;2.10;1.90;;;4.10;99.90;;;;;;5057974;28;20444;-59
2023/11/26 12:16:16;;;;;;;5.20;2.00;;;4.20;99.90;;;;;;5061006;28;20205;-60
2023/11/26 12:18:42;;;;;;;3.40;2.13;;;4.20;99.90;;;;;;5057473;28;20512;-60
2023/11/26 12:21:09;;;;;;;4.53;2.57;;;4.30;99.90;;;;;;5058286;28;20198;-61
2023/11/26 12:23:38;;;;;;;2.00;1.80;;;4.30;99.90;;;;;;5067477;28;20424;-60
2023/11/26 12:26:04;;;;;;;2.40;2.00;;;4.30;99.90;;;;;;5070586;28;20424;-59
2023/11/26 12:28:40;;;;;;;2.33;2.13;;;4.30;99.90;;;;;;5064046;28;20523;-59
2023/11/26 12:31:06;;;;;;;3.00;2.57;;;4.30;99.90;;;;;;5059876;28;20459;-60
2023/11/26 12:33:32;;;;;;;3.33;2.07;;;4.30;99.90;;;;;;5064346;28;20436;-60
2023/11/26 12:35:57;;;;;;;2.30;2.10;;;4.40;99.90;;;;;;5065563;28;20222;-60
2023/11/26 12:38:26;;;;;;;2.93;2.10;;;4.40;99.90;;;;;;5065219;28;20314;-60
2023/11/26 12:41:00;;;;;;;2.70;2.50;;;4.40;99.90;;;;;;5066967;28;20206;-60
2023/11/26 12:43:26;;;;;;;2.30;2.10;;;4.30;99.90;;;;;;5067682;28;20439;-60
2023/11/26 12:46:07;;;;;;;2.50;1.90;;;4.20;99.90;;;;;;5064159;28;20524;-60
2023/11/26 12:48:33;;;;;;;5.17;2.43;;;4.20;99.90;;;;;;5064787;28;20931;-59
2023/11/26 12:50:59;;;;;;;4.03;2.13;;;4.20;99.90;;;;;;5068899;28;20432;-60
2023/11/26 12:53:24;;;;;;;3.43;2.03;;;4.30;99.90;;;;;;5066936;28;20190;-59
2023/11/26 12:55:50;;;;;;;2.07;1.87;;;4.30;99.90;;;;;;5067548;28;20206;-60
2023/11/26 12:58:27;;;;;;;2.43;1.70;;;4.40;99.90;;;;;;5063131;28;20197;-60